sensor_id;sensor_type;location;lat;lon;timestamp;P1;durP1;ratioP1;P2;durP2;ratioP2
27979;SDS011;15315;50.836;4.430;2023-03-23T00:08:07;5.90;;;3.70;;
27979;SDS011;15315;50.836;4.430;2023-03-23T00:18:12;5.60;;;4.03;;
27979;SDS011;15315;50.836;4.430;2023-03-23T00:28:20;10.25;;;4.15;;
27979;SDS011;15315;50.836;4.430;2023-03-23T00:38:24;7.53;;;4.00;;
27979;SDS011;15315;50.836;4.430;2023-03-23T00:48:25;8.50;;;4.03;;
27979;SDS011;15315;50.836;4.430;2023-03-23T00:58:25;10.48;;;4.10;;
27979;SDS011;15315;50.836;4.430;2023-03-23T01:08:26;6.18;;;3.88;;
27979;SDS011;15315;50.836;4.430;2023-03-23T01:18:27;5.47;;;4.07;;
27979;SDS011;15315;50.836;4.430;2023-03-23T01:28:28;7.20;;;4.10;;
27979;SDS011;15315;50.836;4.430;2023-03-23T01:38:28;3.78;;;3.10;;
27979;SDS011;15315;50.836;4.430;2023-03-23T01:48:38;4.95;;;3.30;;
27979;SDS011;15315;50.836;4.430;2023-03-23T01:58:39;7.15;;;3.67;;
27979;SDS011;15315;50.836;4.430;2023-03-23T02:08:41;5.85;;;3.10;;
27979;SDS011;15315;50.836;4.430;2023-03-23T02:39:22;6.75;;;2.88;;
27979;SDS011;15315;50.836;4.430;2023-03-23T02:49:26;6.20;;;2.20;;
27979;SDS011;15315;50.836;4.430;2023-03-23T02:59:30;9.13;;;2.00;;
27979;SDS011;15315;50.836;4.430;2023-03-23T03:09:46;8.35;;;2.17;;
27979;SDS011;15315;50.836;4.430;2023-03-23T03:19:57;4.95;;;1.67;;
27979;SDS011;15315;50.836;4.430;2023-03-23T03:30:08;5.85;;;1.63;;
27979;SDS011;15315;50.836;4.430;2023-03-23T03:40:13;6.40;;;1.90;;
27979;SDS011;15315;50.836;4.430;2023-03-23T03:50:15;8.30;;;2.20;;
27979;SDS011;15315;50.836;4.430;2023-03-23T04:00:16;6.00;;;2.00;;
27979;SDS011;15315;50.836;4.430;2023-03-23T04:10:19;14.48;;;2.60;;
27979;SDS011;15315;50.836;4.430;2023-03-23T04:20:22;9.40;;;2.07;;
27979;SDS011;15315;50.836;4.430;2023-03-23T04:30:24;12.98;;;2.40;;
27979;SDS011;15315;50.836;4.430;2023-03-23T04:40:24;14.68;;;2.75;;
27979;SDS011;15315;50.836;4.430;2023-03-23T04:50:27;9.85;;;1.83;;
27979;SDS011;15315;50.836;4.430;2023-03-23T05:00:30;11.43;;;1.95;;
27979;SDS011;15315;50.836;4.430;2023-03-23T05:10:32;12.15;;;2.78;;
27979;SDS011;15315;50.836;4.430;2023-03-23T05:20:32;6.30;;;1.92;;
27979;SDS011;15315;50.836;4.430;2023-03-23T05:30:34;8.52;;;2.00;;
27979;SDS011;15315;50.836;4.430;2023-03-23T05:40:34;7.25;;;2.17;;
27979;SDS011;15315;50.836;4.430;2023-03-23T05:50:35;8.85;;;2.17;;
27979;SDS011;15315;50.836;4.430;2023-03-23T06:00:36;6.70;;;1.80;;
27979;SDS011;15315;50.836;4.430;2023-03-23T06:10:36;9.18;;;2.30;;
27979;SDS011;15315;50.836;4.430;2023-03-23T06:20:37;8.60;;;2.10;;
27979;SDS011;15315;50.836;4.430;2023-03-23T06:30:37;11.05;;;2.42;;
27979;SDS011;15315;50.836;4.430;2023-03-23T06:40:38;13.35;;;2.50;;
27979;SDS011;15315;50.836;4.430;2023-03-23T06:50:38;18.50;;;2.40;;
27979;SDS011;15315;50.836;4.430;2023-03-23T07:00:43;9.73;;;2.08;;
27979;SDS011;15315;50.836;4.430;2023-03-23T07:10:44;10.20;;;2.50;;
27979;SDS011;15315;50.836;4.430;2023-03-23T07:20:48;4.55;;;1.30;;
27979;SDS011;15315;50.836;4.430;2023-03-23T07:30:50;9.90;;;2.40;;
27979;SDS011;15315;50.836;4.430;2023-03-23T07:40:51;24.67;;;3.28;;
27979;SDS011;15315;50.836;4.430;2023-03-23T07:50:51;9.88;;;2.95;;
27979;SDS011;15315;50.836;4.430;2023-03-23T08:00:52;7.53;;;2.20;;
27979;SDS011;15315;50.836;4.430;2023-03-23T08:10:52;12.10;;;1.85;;
27979;SDS011;15315;50.836;4.430;2023-03-23T08:20:53;4.10;;;1.30;;
27979;SDS011;15315;50.836;4.430;2023-03-23T08:30:53;3.17;;;1.45;;
27979;SDS011;15315;50.836;4.430;2023-03-23T08:40:58;5.32;;;1.25;;
27979;SDS011;15315;50.836;4.430;2023-03-23T08:50:59;6.40;;;1.40;;
27979;SDS011;15315;50.836;4.430;2023-03-23T09:01:02;10.25;;;1.98;;
27979;SDS011;15315;50.836;4.430;2023-03-23T09:11:06;8.48;;;1.77;;
27979;SDS011;15315;50.836;4.430;2023-03-23T09:21:08;11.10;;;2.03;;
27979;SDS011;15315;50.836;4.430;2023-03-23T09:31:09;10.73;;;1.70;;
27979;SDS011;15315;50.836;4.430;2023-03-23T09:51:59;14.48;;;3.33;;
27979;SDS011;15315;50.836;4.430;2023-03-23T10:12:29;6.32;;;2.28;;
27979;SDS011;15315;50.836;4.430;2023-03-23T10:33:21;8.50;;;2.08;;
27979;SDS011;15315;50.836;4.430;2023-03-23T10:43:23;9.07;;;1.98;;
27979;SDS011;15315;50.836;4.430;2023-03-23T10:53:37;8.88;;;3.45;;
27979;SDS011;15315;50.836;4.430;2023-03-23T11:03:46;13.48;;;3.10;;
27979;SDS011;15315;50.836;4.430;2023-03-23T11:13:49;7.15;;;2.00;;
27979;SDS011;15315;50.836;4.430;2023-03-23T11:23:57;10.57;;;3.15;;
27979;SDS011;15315;50.836;4.430;2023-03-23T11:34:04;8.20;;;2.40;;
27979;SDS011;15315;50.836;4.430;2023-03-23T11:44:10;8.68;;;3.05;;
27979;SDS011;15315;50.836;4.430;2023-03-23T12:14:40;22.33;;;2.90;;
27979;SDS011;15315;50.836;4.430;2023-03-23T13:06:36;12.02;;;2.78;;
27979;SDS011;15315;50.836;4.430;2023-03-23T13:16:53;12.65;;;2.80;;
27979;SDS011;15315;50.836;4.430;2023-03-23T13:27:16;33.97;;;3.67;;
27979;SDS011;15315;50.836;4.430;2023-03-23T14:07:26;8.43;;;2.63;;
27979;SDS011;15315;50.836;4.430;2023-03-23T14:17:28;13.45;;;2.38;;
27979;SDS011;15315;50.836;4.430;2023-03-23T14:27:29;13.48;;;3.20;;
27979;SDS011;15315;50.836;4.430;2023-03-23T14:37:30;12.50;;;3.08;;
27979;SDS011;15315;50.836;4.430;2023-03-23T14:47:38;13.60;;;3.30;;
27979;SDS011;15315;50.836;4.430;2023-03-23T14:57:43;11.98;;;2.50;;
27979;SDS011;15315;50.836;4.430;2023-03-23T15:07:44;15.25;;;3.17;;
27979;SDS011;15315;50.836;4.430;2023-03-23T15:17:47;13.97;;;3.57;;
27979;SDS011;15315;50.836;4.430;2023-03-23T15:27:54;14.00;;;2.63;;
27979;SDS011;15315;50.836;4.430;2023-03-23T15:37:57;15.68;;;3.13;;
27979;SDS011;15315;50.836;4.430;2023-03-23T15:48:12;15.98;;;3.88;;
27979;SDS011;15315;50.836;4.430;2023-03-23T15:58:13;12.10;;;3.50;;
27979;SDS011;15315;50.836;4.430;2023-03-23T16:08:14;13.25;;;2.90;;
27979;SDS011;15315;50.836;4.430;2023-03-23T16:18:17;17.67;;;3.75;;
27979;SDS011;15315;50.836;4.430;2023-03-23T16:28:18;16.48;;;2.90;;
27979;SDS011;15315;50.836;4.430;2023-03-23T16:38:19;23.52;;;3.53;;
27979;SDS011;15315;50.836;4.430;2023-03-23T16:48:20;11.00;;;3.42;;
27979;SDS011;15315;50.836;4.430;2023-03-23T16:58:20;12.98;;;2.80;;
27979;SDS011;15315;50.836;4.430;2023-03-23T17:08:20;19.60;;;3.42;;
27979;SDS011;15315;50.836;4.430;2023-03-23T17:18:22;17.92;;;3.20;;
27979;SDS011;15315;50.836;4.430;2023-03-23T17:28:23;15.82;;;3.63;;
27979;SDS011;15315;50.836;4.430;2023-03-23T17:38:24;9.38;;;3.33;;
27979;SDS011;15315;50.836;4.430;2023-03-23T17:48:26;15.82;;;3.75;;
27979;SDS011;15315;50.836;4.430;2023-03-23T17:58:26;14.88;;;3.35;;
27979;SDS011;15315;50.836;4.430;2023-03-23T18:08:27;17.67;;;3.22;;
27979;SDS011;15315;50.836;4.430;2023-03-23T18:18:28;24.83;;;3.88;;
27979;SDS011;15315;50.836;4.430;2023-03-23T18:28:29;17.75;;;3.97;;
27979;SDS011;15315;50.836;4.430;2023-03-23T18:38:29;12.90;;;3.30;;
27979;SDS011;15315;50.836;4.430;2023-03-23T18:48:30;11.75;;;3.92;;
27979;SDS011;15315;50.836;4.430;2023-03-23T18:58:31;15.60;;;3.58;;
27979;SDS011;15315;50.836;4.430;2023-03-23T19:08:31;13.13;;;3.83;;
27979;SDS011;15315;50.836;4.430;2023-03-23T19:18:33;14.32;;;3.33;;
27979;SDS011;15315;50.836;4.430;2023-03-23T19:28:34;13.00;;;3.78;;
27979;SDS011;15315;50.836;4.430;2023-03-23T19:38:34;16.13;;;3.45;;
27979;SDS011;15315;50.836;4.430;2023-03-23T19:48:35;8.05;;;2.63;;
27979;SDS011;15315;50.836;4.430;2023-03-23T19:58:37;8.65;;;2.90;;
27979;SDS011;15315;50.836;4.430;2023-03-23T20:08:42;8.98;;;2.33;;
27979;SDS011;15315;50.836;4.430;2023-03-23T20:18:43;11.30;;;2.40;;
27979;SDS011;15315;50.836;4.430;2023-03-23T20:28:46;11.95;;;2.47;;
27979;SDS011;15315;50.836;4.430;2023-03-23T20:38:46;8.57;;;3.10;;
27979;SDS011;15315;50.836;4.430;2023-03-23T20:48:47;8.57;;;2.50;;
27979;SDS011;15315;50.836;4.430;2023-03-23T20:58:49;8.80;;;2.97;;
27979;SDS011;15315;50.836;4.430;2023-03-23T21:08:50;10.60;;;2.70;;
27979;SDS011;15315;50.836;4.430;2023-03-23T21:18:52;11.70;;;3.08;;
27979;SDS011;15315;50.836;4.430;2023-03-23T21:28:52;8.75;;;2.80;;
27979;SDS011;15315;50.836;4.430;2023-03-23T21:38:53;9.43;;;3.83;;
27979;SDS011;15315;50.836;4.430;2023-03-23T21:48:54;11.73;;;2.95;;
27979;SDS011;15315;50.836;4.430;2023-03-23T21:58:54;10.48;;;3.30;;
27979;SDS011;15315;50.836;4.430;2023-03-23T22:08:55;6.53;;;2.40;;
27979;SDS011;15315;50.836;4.430;2023-03-23T22:18:56;13.67;;;3.40;;
27979;SDS011;15315;50.836;4.430;2023-03-23T22:28:58;5.90;;;2.58;;
27979;SDS011;15315;50.836;4.430;2023-03-23T22:38:59;10.23;;;3.05;;
27979;SDS011;15315;50.836;4.430;2023-03-23T22:49:00;10.63;;;2.90;;
27979;SDS011;15315;50.836;4.430;2023-03-23T22:59:01;6.18;;;2.72;;
27979;SDS011;15315;50.836;4.430;2023-03-23T23:09:02;7.45;;;3.20;;
27979;SDS011;15315;50.836;4.430;2023-03-23T23:19:03;9.63;;;2.92;;
27979;SDS011;15315;50.836;4.430;2023-03-23T23:29:04;6.85;;;3.20;;
27979;SDS011;15315;50.836;4.430;2023-03-23T23:39:04;7.05;;;2.90;;
27979;SDS011;15315;50.836;4.430;2023-03-23T23:49:05;10.65;;;2.70;;
27979;SDS011;15315;50.836;4.430;2023-03-23T23:59:06;6.47;;;2.40;;
